sensor_id;sensor_type;location;lat;lon;timestamp;pressure;altitude;pressure_sealevel;temperature;humidity
53940;BME280;39850;43.324;21.916;2023-03-04T00:03:25;994.0;;;8.2;82.0
53940;BME280;39850;43.324;21.916;2023-03-04T00:08:03;994.0;;;8.2;82.0
53940;BME280;39850;43.324;21.916;2023-03-04T00:44:55;994.0;;;7.1;86.0
53940;BME280;39850;43.324;21.916;2023-03-04T00:49:32;994.0;;;7.1;86.0
53940;BME280;39850;43.324;21.916;2023-03-04T00:54:09;994.0;;;7.1;86.0
53940;BME280;39850;43.324;21.916;2023-03-04T00:58:46;994.0;;;7.1;86.0
53940;BME280;39850;43.324;21.916;2023-03-04T01:03:23;994.0;;;7.1;86.0
53940;BME280;39850;43.324;21.916;2023-03-04T01:08:00;994.0;;;7.1;86.0
53940;BME280;39850;43.324;21.916;2023-03-04T01:12:37;994.0;;;7.1;86.0
53940;BME280;39850;43.324;21.916;2023-03-04T01:17:14;994.0;;;7.1;86.0
53940;BME280;39850;43.324;21.916;2023-03-04T01:21:51;994.0;;;7.1;86.0
53940;BME280;39850;43.324;21.916;2023-03-04T01:26:28;994.0;;;7.1;86.0
53940;BME280;39850;43.324;21.916;2023-03-04T01:31:06;994.0;;;7.1;86.0
53940;BME280;39850;43.324;21.916;2023-03-04T02:13:07;993.0;;;7.1;88.0
53940;BME280;39850;43.324;21.916;2023-03-04T02:17:45;993.0;;;7.1;88.0
53940;BME280;39850;43.324;21.916;2023-03-04T02:22:22;993.0;;;7.2;88.0
53940;BME280;39850;43.324;21.916;2023-03-04T02:26:59;993.0;;;7.2;88.0
53940;BME280;39850;43.324;21.916;2023-03-04T02:31:46;993.0;;;7.2;88.0
53940;BME280;39850;43.324;21.916;2023-03-04T02:36:27;993.0;;;7.2;88.0
53940;BME280;39850;43.324;21.916;2023-03-04T02:41:18;993.0;;;7.2;88.0
53940;BME280;39850;43.324;21.916;2023-03-04T02:45:55;993.0;;;7.3;88.0
53940;BME280;39850;43.324;21.916;2023-03-04T02:50:49;993.0;;;7.3;88.0
53940;BME280;39850;43.324;21.916;2023-03-04T03:23:12;993.0;;;7.3;91.0
53940;BME280;39850;43.324;21.916;2023-03-04T03:27:48;993.0;;;7.3;91.0
53940;BME280;39850;43.324;21.916;2023-03-04T03:32:26;993.0;;;7.3;92.0
53940;BME280;39850;43.324;21.916;2023-03-04T03:37:03;993.0;;;7.3;92.0
53940;BME280;39850;43.324;21.916;2023-03-04T03:41:41;993.0;;;7.3;92.0
53940;BME280;39850;43.324;21.916;2023-03-04T03:46:18;993.0;;;7.3;91.0
53940;BME280;39850;43.324;21.916;2023-03-04T03:50:55;993.0;;;7.3;91.0
53940;BME280;39850;43.324;21.916;2023-03-04T03:55:32;993.0;;;7.3;91.0
53940;BME280;39850;43.324;21.916;2023-03-04T04:00:16;993.0;;;7.3;91.0
53940;BME280;39850;43.324;21.916;2023-03-04T04:04:53;993.0;;;7.3;90.0
53940;BME280;39850;43.324;21.916;2023-03-04T04:09:30;993.0;;;7.3;90.0
53940;BME280;39850;43.324;21.916;2023-03-04T04:46:26;993.0;;;7.3;91.0
53940;BME280;39850;43.324;21.916;2023-03-04T04:51:04;993.0;;;7.3;91.0
53940;BME280;39850;43.324;21.916;2023-03-04T04:55:41;993.0;;;7.3;92.0
53940;BME280;39850;43.324;21.916;2023-03-04T05:00:20;993.0;;;7.3;92.0
53940;BME280;39850;43.324;21.916;2023-03-04T05:04:57;993.0;;;7.3;91.0
53940;BME280;39850;43.324;21.916;2023-03-04T05:09:34;993.0;;;7.3;91.0
53940;BME280;39850;43.324;21.916;2023-03-04T05:14:10;993.0;;;7.3;92.0
53940;BME280;39850;43.324;21.916;2023-03-04T05:18:47;993.0;;;7.3;92.0
53940;BME280;39850;43.324;21.916;2023-03-04T05:23:33;993.0;;;7.3;91.0
53940;BME280;39850;43.324;21.916;2023-03-04T05:28:11;993.0;;;7.3;91.0
53940;BME280;39850;43.324;21.916;2023-03-04T06:14:26;993.0;;;7.3;91.0
53940;BME280;39850;43.324;21.916;2023-03-04T06:19:03;993.0;;;7.3;91.0
53940;BME280;39850;43.324;21.916;2023-03-04T06:23:40;993.0;;;7.3;91.0
53940;BME280;39850;43.324;21.916;2023-03-04T06:28:17;993.0;;;7.3;91.0
53940;BME280;39850;43.324;21.916;2023-03-04T06:32:54;993.0;;;7.3;91.0
53940;BME280;39850;43.324;21.916;2023-03-04T06:37:31;993.0;;;7.3;91.0
53940;BME280;39850;43.324;21.916;2023-03-04T06:42:08;993.0;;;7.3;91.0
53940;BME280;39850;43.324;21.916;2023-03-04T06:46:45;993.0;;;7.3;90.0
53940;BME280;39850;43.324;21.916;2023-03-04T06:51:21;993.0;;;7.3;90.0
53940;BME280;39850;43.324;21.916;2023-03-04T07:32:52;993.0;;;7.1;90.0
53940;BME280;39850;43.324;21.916;2023-03-04T07:37:29;993.0;;;7.1;90.0
53940;BME280;39850;43.324;21.916;2023-03-04T07:42:05;993.0;;;7.1;90.0
53940;BME280;39850;43.324;21.916;2023-03-04T07:46:42;993.0;;;7.1;91.0
53940;BME280;39850;43.324;21.916;2023-03-04T07:51:26;993.0;;;7.1;91.0
53940;BME280;39850;43.324;21.916;2023-03-04T07:56:14;993.0;;;7.1;91.0
53940;BME280;39850;43.324;21.916;2023-03-04T08:00:52;993.0;;;7.1;91.0
53940;BME280;39850;43.324;21.916;2023-03-04T08:05:28;993.0;;;7.1;91.0
53940;BME280;39850;43.324;21.916;2023-03-04T08:10:10;993.0;;;7.1;91.0
53940;BME280;39850;43.324;21.916;2023-03-04T08:56:21;993.0;;;8.0;84.0
53940;BME280;39850;43.324;21.916;2023-03-04T09:01:07;993.0;;;8.0;84.0
53940;BME280;39850;43.324;21.916;2023-03-04T09:05:47;993.0;;;8.1;85.0
53940;BME280;39850;43.324;21.916;2023-03-04T09:10:26;993.0;;;8.1;85.0
53940;BME280;39850;43.324;21.916;2023-03-04T09:15:09;993.0;;;8.1;85.0
53940;BME280;39850;43.324;21.916;2023-03-04T09:19:45;993.0;;;8.1;85.0
53940;BME280;39850;43.324;21.916;2023-03-04T09:24:22;993.0;;;8.2;86.0
53940;BME280;39850;43.324;21.916;2023-03-04T09:29:03;993.0;;;8.2;86.0
53940;BME280;39850;43.324;21.916;2023-03-04T12:47:20;990.0;;;10.7;66.0
53940;BME280;39850;43.324;21.916;2023-03-04T12:52:50;990.0;;;10.7;66.0
53940;BME280;39850;43.324;21.916;2023-03-04T12:57:31;990.0;;;10.7;67.0
53940;BME280;39850;43.324;21.916;2023-03-04T13:03:13;990.0;;;10.7;67.0
53940;BME280;39850;43.324;21.916;2023-03-04T13:08:39;990.0;;;10.7;66.0
53940;BME280;39850;43.324;21.916;2023-03-04T13:13:41;990.0;;;10.7;66.0
53940;BME280;39850;43.324;21.916;2023-03-04T13:18:37;990.0;;;10.7;66.0
53940;BME280;39850;43.324;21.916;2023-03-04T13:23:29;990.0;;;10.7;66.0
53940;BME280;39850;43.324;21.916;2023-03-04T13:28:27;990.0;;;10.7;65.0
53940;BME280;39850;43.324;21.916;2023-03-04T14:27:13;990.0;;;9.6;69.0
53940;BME280;39850;43.324;21.916;2023-03-04T14:31:54;990.0;;;9.6;69.0
53940;BME280;39850;43.324;21.916;2023-03-04T14:36:36;990.0;;;9.6;69.0
53940;BME280;39850;43.324;21.916;2023-03-04T14:41:31;990.0;;;9.6;69.0
53940;BME280;39850;43.324;21.916;2023-03-04T14:46:22;990.0;;;9.6;69.0
53940;BME280;39850;43.324;21.916;2023-03-04T14:51:03;990.0;;;9.6;69.0
53940;BME280;39850;43.324;21.916;2023-03-04T15:38:01;989.0;;;10.0;69.0
53940;BME280;39850;43.324;21.916;2023-03-04T15:42:38;989.0;;;10.0;69.0
53940;BME280;39850;43.324;21.916;2023-03-04T15:47:15;989.0;;;9.8;69.0
53940;BME280;39850;43.324;21.916;2023-03-04T15:51:51;989.0;;;9.8;69.0
53940;BME280;39850;43.324;21.916;2023-03-04T15:56:34;989.0;;;9.8;69.0
53940;BME280;39850;43.324;21.916;2023-03-04T16:01:17;989.0;;;9.8;69.0
53940;BME280;39850;43.324;21.916;2023-03-04T16:05:54;989.0;;;9.6;69.0
53940;BME280;39850;43.324;21.916;2023-03-04T16:10:33;989.0;;;9.6;69.0
53940;BME280;39850;43.324;21.916;2023-03-04T16:47:51;989.0;;;9.1;74.0
53940;BME280;39850;43.324;21.916;2023-03-04T16:52:33;989.0;;;9.1;74.0
53940;BME280;39850;43.324;21.916;2023-03-04T16:57:09;989.0;;;9.1;74.0
53940;BME280;39850;43.324;21.916;2023-03-04T17:01:48;989.0;;;9.1;74.0
53940;BME280;39850;43.324;21.916;2023-03-04T17:06:26;989.0;;;9.1;74.0
53940;BME280;39850;43.324;21.916;2023-03-04T17:11:04;989.0;;;9.1;74.0
53940;BME280;39850;43.324;21.916;2023-03-04T17:15:41;989.0;;;9.1;74.0
53940;BME280;39850;43.324;21.916;2023-03-04T17:20:20;989.0;;;9.1;74.0
53940;BME280;39850;43.324;21.916;2023-03-04T17:24:57;989.0;;;9.1;74.0
53940;BME280;39850;43.324;21.916;2023-03-04T17:29:34;989.0;;;9.1;74.0
53940;BME280;39850;43.324;21.916;2023-03-04T17:34:12;989.0;;;9.1;74.0
53940;BME280;39850;43.324;21.916;2023-03-04T18:24:56;989.0;;;8.6;77.0
53940;BME280;39850;43.324;21.916;2023-03-04T18:29:33;989.0;;;8.6;77.0
53940;BME280;39850;43.324;21.916;2023-03-04T18:34:10;989.0;;;8.6;77.0
53940;BME280;39850;43.324;21.916;2023-03-04T18:38:47;989.0;;;8.6;77.0
53940;BME280;39850;43.324;21.916;2023-03-04T18:43:23;989.0;;;8.6;77.0
53940;BME280;39850;43.324;21.916;2023-03-04T18:48:00;989.0;;;8.6;77.0
53940;BME280;39850;43.324;21.916;2023-03-04T18:52:36;989.0;;;8.6;77.0
53940;BME280;39850;43.324;21.916;2023-03-04T19:25:09;989.0;;;9.1;77.0
53940;BME280;39850;43.324;21.916;2023-03-04T19:29:48;989.0;;;9.1;77.0
53940;BME280;39850;43.324;21.916;2023-03-04T19:34:26;989.0;;;9.1;77.0
53940;BME280;39850;43.324;21.916;2023-03-04T19:39:04;989.0;;;9.1;77.0
53940;BME280;39850;43.324;21.916;2023-03-04T19:43:42;989.0;;;9.1;77.0
53940;BME280;39850;43.324;21.916;2023-03-04T19:48:21;990.0;;;9.1;77.0
53940;BME280;39850;43.324;21.916;2023-03-04T19:52:59;990.0;;;9.1;77.0
53940;BME280;39850;43.324;21.916;2023-03-04T19:57:36;990.0;;;9.1;77.0
53940;BME280;39850;43.324;21.916;2023-03-04T20:02:13;990.0;;;9.1;77.0
53940;BME280;39850;43.324;21.916;2023-03-04T20:06:51;990.0;;;9.1;77.0
53940;BME280;39850;43.324;21.916;2023-03-04T20:11:30;990.0;;;9.1;77.0
53940;BME280;39850;43.324;21.916;2023-03-04T20:48:28;990.0;;;9.7;75.0
53940;BME280;39850;43.324;21.916;2023-03-04T20:53:04;990.0;;;9.7;75.0
53940;BME280;39850;43.324;21.916;2023-03-04T20:57:41;990.0;;;9.7;75.0
53940;BME280;39850;43.324;21.916;2023-03-04T21:02:18;990.0;;;9.7;75.0
53940;BME280;39850;43.324;21.916;2023-03-04T21:06:55;990.0;;;9.8;74.0
53940;BME280;39850;43.324;21.916;2023-03-04T21:11:33;990.0;;;9.8;74.0
53940;BME280;39850;43.324;21.916;2023-03-04T21:16:16;990.0;;;10.0;73.0
53940;BME280;39850;43.324;21.916;2023-03-04T21:20:53;990.0;;;10.0;73.0
53940;BME280;39850;43.324;21.916;2023-03-04T21:25:29;990.0;;;10.0;73.0
53940;BME280;39850;43.324;21.916;2023-03-04T21:30:12;990.0;;;10.0;73.0
53940;BME280;39850;43.324;21.916;2023-03-04T21:34:54;990.0;;;10.0;73.0
53940;BME280;39850;43.324;21.916;2023-03-04T22:07:15;989.0;;;9.0;75.0
53940;BME280;39850;43.324;21.916;2023-03-04T22:11:52;989.0;;;9.0;75.0
53940;BME280;39850;43.324;21.916;2023-03-04T22:16:34;989.0;;;9.0;76.0
53940;BME280;39850;43.324;21.916;2023-03-04T22:21:21;989.0;;;9.0;76.0
53940;BME280;39850;43.324;21.916;2023-03-04T22:26:12;989.0;;;9.1;77.0
53940;BME280;39850;43.324;21.916;2023-03-04T22:30:51;989.0;;;9.1;77.0
53940;BME280;39850;43.324;21.916;2023-03-04T22:35:28;989.0;;;9.1;77.0
53940;BME280;39850;43.324;21.916;2023-03-04T22:40:12;989.0;;;9.1;77.0
53940;BME280;39850;43.324;21.916;2023-03-04T22:44:49;989.0;;;9.1;77.0
53940;BME280;39850;43.324;21.916;2023-03-04T22:49:25;989.0;;;9.1;77.0
53940;BME280;39850;43.324;21.916;2023-03-04T22:54:03;989.0;;;9.1;77.0
53940;BME280;39850;43.324;21.916;2023-03-04T23:26:34;989.0;;;8.9;76.0
53940;BME280;39850;43.324;21.916;2023-03-04T23:31:13;989.0;;;8.9;76.0
53940;BME280;39850;43.324;21.916;2023-03-04T23:35:50;989.0;;;8.9;76.0
53940;BME280;39850;43.324;21.916;2023-03-04T23:40:27;989.0;;;8.9;76.0
53940;BME280;39850;43.324;21.916;2023-03-04T23:45:09;989.0;;;8.9;76.0
53940;BME280;39850;43.324;21.916;2023-03-04T23:49:47;989.0;;;9.0;77.0
53940;BME280;39850;43.324;21.916;2023-03-04T23:54:24;989.0;;;9.0;77.0
53940;BME280;39850;43.324;21.916;2023-03-04T23:59:01;989.0;;;9.1;78.0
